createdAt,value
2022-08-05T00:00:23.610Z,67.91
2022-08-05T00:02:54.875Z,68.57
2022-08-05T00:06:03.279Z,68.39
2022-08-05T00:08:34.395Z,68.44
2022-08-05T00:11:04.871Z,68.83
2022-08-05T00:13:53.145Z,68.84
2022-08-05T00:16:36.571Z,69.79
2022-08-05T00:19:11.406Z,69.43
2022-08-05T00:21:42.574Z,68.91
2022-08-05T00:24:18.850Z,68.72
2022-08-05T00:26:50.727Z,69.32
2022-08-05T00:29:25.412Z,69.67
2022-08-05T00:32:12.278Z,69.60
2022-08-05T00:35:04.759Z,70.02
2022-08-05T00:37:35.733Z,69.76
2022-08-05T00:40:26.653Z,70.63
2022-08-05T00:43:00.278Z,70.25
2022-08-05T00:45:42.750Z,69.94
2022-08-05T00:48:14.564Z,69.65
2022-08-05T00:50:46.642Z,70.03
2022-08-05T00:54:00.706Z,70.18
2022-08-05T00:56:10.122Z,70.19
2022-08-05T00:58:42.489Z,70.85
2022-08-05T01:01:16.493Z,71.17
2022-08-05T01:04:13.896Z,70.69
2022-08-05T01:06:48.540Z,71.16
2022-08-05T01:09:20.002Z,70.78
2022-08-05T01:11:56.819Z,70.70
2022-08-05T01:14:33.537Z,70.75
2022-08-05T01:17:08.918Z,71.01
2022-08-05T01:20:02.213Z,71.33
2022-08-05T01:22:51.432Z,71.65
2022-08-05T01:25:40.754Z,70.91
2022-08-05T01:28:28.542Z,71.65
2022-08-05T01:31:05.941Z,71.43
2022-08-05T01:33:48.973Z,71.53
2022-08-05T01:36:28.072Z,71.55
2022-08-05T01:39:01.104Z,71.12
2022-08-05T01:41:40.204Z,71.58
2022-08-05T01:44:16.338Z,71.56
2022-08-05T01:46:47.457Z,71.39
2022-08-05T01:49:24.652Z,71.66
2022-08-05T01:52:01.098Z,71.93
2022-08-05T01:54:46.115Z,72.40
2022-08-05T01:58:13.191Z,72.05
2022-08-05T02:00:14.123Z,72.67
2022-08-05T02:02:53.644Z,72.13
2022-08-05T02:05:34.155Z,72.13
2022-08-05T02:08:05.886Z,72.20
2022-08-05T02:10:43.003Z,72.17
2022-08-05T02:13:18.709Z,72.41
2022-08-05T02:16:02.999Z,72.51
2022-08-05T02:18:42.060Z,72.82
2022-08-05T02:21:17.641Z,72.65
2022-08-05T02:23:54.581Z,72.44
2022-08-05T02:26:51.811Z,72.43
2022-08-05T02:30:00.006Z,71.98
2022-08-05T02:32:24.255Z,71.13
2022-08-05T02:35:13.967Z,70.68
2022-08-05T02:37:46.536Z,69.88
2022-08-05T02:40:19.609Z,69.11
2022-08-05T02:42:54.398Z,68.86
2022-08-05T02:45:25.484Z,68.30
2022-08-05T02:48:11.922Z,68.03
2022-08-05T02:50:46.076Z,67.55
2022-08-05T02:53:19.466Z,66.89
2022-08-05T02:55:59.532Z,66.36
2022-08-05T02:58:30.496Z,65.89
2022-08-05T03:01:03.794Z,65.15
2022-08-05T03:04:03.061Z,65.30
2022-08-05T03:06:55.961Z,64.95
2022-08-05T03:09:26.985Z,64.89
2022-08-05T03:12:07.989Z,64.67
2022-08-05T03:14:45.678Z,64.35
2022-08-05T03:17:14.937Z,64.12
2022-08-05T03:19:45.563Z,64.12
2022-08-05T03:22:16.457Z,64.05
2022-08-05T03:24:52.161Z,64.37
2022-08-05T03:27:22.577Z,64.66
2022-08-05T03:30:07.325Z,65.29
2022-08-05T03:32:40.396Z,65.76
2022-08-05T03:35:11.408Z,65.94
2022-08-05T03:37:46.646Z,66.63
2022-08-05T03:40:31.074Z,66.62
2022-08-05T03:43:01.449Z,67.46
2022-08-05T03:45:58.083Z,67.49
2022-08-05T03:48:29.036Z,67.87
2022-08-05T03:52:39.131Z,68.01
2022-08-05T03:55:51.847Z,68.44
2022-08-05T03:57:00.021Z,68.80
2022-08-05T03:59:46.865Z,68.70
2022-08-05T04:02:39.034Z,68.79
2022-08-05T04:05:16.098Z,68.02
2022-08-05T04:07:57.075Z,67.81
2022-08-05T04:10:34.520Z,67.85
2022-08-05T04:13:08.363Z,68.14
2022-08-05T04:15:37.404Z,67.86
2022-08-05T04:18:07.915Z,67.33
2022-08-05T04:20:41.312Z,67.31
2022-08-05T04:23:16.045Z,67.24
2022-08-05T04:25:57.478Z,67.25
2022-08-05T04:28:31.028Z,66.92
2022-08-05T04:31:01.977Z,66.54
2022-08-05T04:34:17.663Z,66.70
2022-08-05T04:36:45.326Z,66.61
2022-08-05T04:39:18.961Z,66.53
2022-08-05T04:41:48.488Z,66.00
2022-08-05T04:44:21.457Z,65.71
2022-08-05T04:46:59.106Z,65.30
2022-08-05T04:50:01.057Z,64.98
2022-08-05T04:52:18.798Z,64.64
2022-08-05T04:54:49.460Z,64.27
2022-08-05T04:57:18.535Z,64.10
2022-08-05T04:59:47.975Z,63.67
2022-08-05T05:02:36.103Z,63.57
2022-08-05T05:05:16.581Z,63.36
2022-08-05T05:08:00.968Z,63.25
2022-08-05T05:10:39.047Z,63.17
2022-08-05T05:13:10.329Z,62.69
2022-08-05T05:15:56.953Z,62.51
2022-08-05T05:18:33.380Z,61.97
2022-08-05T05:21:04.360Z,62.95
2022-08-05T05:23:39.015Z,63.60
2022-08-05T05:26:28.744Z,63.85
2022-08-05T05:29:10.068Z,63.33
2022-08-05T05:31:46.537Z,62.92
2022-08-05T05:34:18.085Z,62.22
2022-08-05T05:36:52.733Z,62.23
2022-08-05T05:39:21.464Z,62.25
2022-08-05T05:41:54.634Z,61.43
2022-08-05T05:44:37.384Z,61.04
2022-08-05T05:47:30.362Z,60.60
2022-08-05T05:50:01.579Z,60.51
2022-08-05T05:52:34.607Z,60.23
2022-08-05T05:55:13.962Z,60.02
2022-08-05T05:57:52.822Z,59.98
2022-08-05T06:00:27.587Z,59.77
2022-08-05T06:03:02.380Z,59.71
2022-08-05T06:05:31.913Z,59.56
2022-08-05T06:08:01.976Z,59.70
2022-08-05T06:10:36.689Z,59.66
2022-08-05T06:13:07.861Z,59.50
2022-08-05T06:16:30.435Z,59.53
2022-08-05T06:18:30.768Z,59.16
2022-08-05T06:21:01.648Z,58.91
2022-08-05T06:23:43.553Z,58.39
2022-08-05T06:26:21.502Z,58.73
2022-08-05T06:28:54.374Z,58.57
2022-08-05T06:31:23.059Z,58.05
2022-08-05T06:34:07.509Z,57.71
2022-08-05T06:36:58.116Z,57.88
2022-08-05T06:39:27.209Z,57.54
2022-08-05T06:41:58.837Z,57.76
2022-08-05T06:44:29.285Z,58.13
2022-08-05T06:46:58.583Z,58.04
2022-08-05T06:50:01.759Z,58.04
2022-08-05T06:52:37.120Z,57.50
2022-08-05T06:55:08.510Z,57.28
2022-08-05T06:57:58.119Z,57.55
2022-08-05T07:00:27.662Z,57.11
2022-08-05T07:02:58.755Z,56.39
2022-08-05T07:05:37.769Z,56.69
2022-08-05T07:08:11.142Z,56.36
2022-08-05T07:10:53.467Z,56.37
2022-08-05T07:13:58.082Z,56.36
2022-08-05T07:18:02.208Z,55.95
2022-08-05T07:22:27.640Z,55.63
2022-08-05T07:25:23.376Z,55.38
2022-08-05T07:27:57.363Z,55.93
2022-08-05T07:30:32.269Z,56.27
2022-08-05T07:33:05.166Z,56.40
2022-08-05T07:36:04.202Z,55.31
2022-08-05T07:38:34.340Z,55.06
2022-08-05T07:42:09.118Z,54.77
2022-08-05T07:43:56.665Z,55.26
2022-08-05T07:46:27.363Z,55.29
2022-08-05T07:49:04.887Z,55.26
2022-08-05T07:51:48.680Z,55.32
2022-08-05T07:54:30.224Z,54.36
2022-08-05T07:57:17.644Z,54.39
2022-08-05T07:59:50.467Z,55.07
2022-08-05T08:02:26.566Z,55.26
2022-08-05T08:05:01.887Z,54.36
2022-08-05T08:07:39.440Z,54.46
2022-08-05T08:10:21.748Z,54.60
2022-08-05T08:12:51.077Z,55.12
2022-08-05T08:15:37.167Z,54.95
2022-08-05T08:18:13.758Z,55.30
2022-08-05T08:21:02.200Z,54.74
2022-08-05T08:24:01.238Z,54.99
2022-08-05T08:26:27.094Z,54.93
2022-08-05T08:29:21.578Z,54.60
2022-08-05T08:31:50.033Z,54.60
2022-08-05T08:34:30.379Z,54.00
2022-08-05T08:37:09.125Z,54.40
2022-08-05T08:39:38.171Z,54.07
2022-08-05T08:42:34.570Z,54.08
2022-08-05T08:45:20.239Z,53.94
2022-08-05T08:48:07.530Z,53.87
2022-08-05T08:51:22.806Z,54.20
2022-08-05T08:53:44.989Z,53.99
2022-08-05T08:56:14.447Z,54.11
2022-08-05T08:58:47.901Z,54.19
2022-08-05T09:01:21.813Z,53.76
2022-08-05T09:03:55.814Z,53.82
2022-08-05T09:06:30.394Z,53.53
2022-08-05T09:09:03.025Z,53.08
2022-08-05T09:11:52.669Z,52.74
2022-08-05T09:14:58.724Z,52.85
2022-08-05T09:17:40.120Z,52.63
2022-08-05T09:20:10.629Z,52.90
2022-08-05T09:23:19.914Z,52.67
2022-08-05T09:26:08.534Z,52.38
2022-08-05T09:28:41.413Z,51.79
2022-08-05T09:32:38.569Z,50.99
2022-08-05T09:34:04.402Z,51.26
2022-08-05T09:36:56.070Z,51.54
2022-08-05T09:39:45.863Z,51.12
2022-08-05T09:42:23.942Z,51.12
2022-08-05T09:45:17.982Z,50.84
2022-08-05T09:47:55.920Z,50.40
2022-08-05T09:50:38.546Z,50.11
2022-08-05T09:53:22.959Z,50.40
2022-08-05T09:56:02.986Z,50.11
2022-08-05T09:58:34.827Z,50.55
2022-08-05T10:01:15.295Z,50.72
2022-08-05T10:04:00.073Z,49.60
2022-08-05T10:06:29.537Z,49.66
2022-08-05T10:09:27.581Z,48.97
2022-08-05T10:12:30.604Z,49.67
2022-08-05T10:15:21.944Z,49.49
2022-08-05T10:18:20.375Z,50.13
2022-08-05T10:20:57.652Z,49.47
2022-08-05T10:23:55.633Z,48.47
2022-08-05T10:26:31.654Z,47.88
2022-08-05T10:29:02.639Z,47.86
2022-08-05T10:32:54.723Z,47.89
2022-08-05T10:34:25.937Z,47.89
2022-08-05T10:37:00.828Z,47.81
2022-08-05T10:39:59.455Z,48.20
2022-08-05T10:42:33.371Z,47.88
2022-08-05T10:45:21.589Z,47.63
2022-08-05T10:48:30.295Z,47.18
2022-08-05T10:51:04.247Z,47.23
2022-08-05T10:53:45.374Z,47.00
2022-08-05T10:56:25.522Z,47.44
2022-08-05T10:59:12.473Z,47.16
2022-08-05T11:02:14.089Z,47.19
2022-08-05T11:04:50.076Z,47.30
2022-08-05T11:07:32.835Z,47.38
2022-08-05T11:10:27.661Z,47.88
2022-08-05T11:12:58.943Z,47.85
2022-08-05T11:16:00.303Z,47.33
2022-08-05T11:18:34.126Z,47.19
2022-08-05T11:21:11.710Z,47.28
2022-08-05T11:24:05.632Z,46.72
2022-08-05T11:26:49.394Z,45.92
2022-08-05T11:29:41.692Z,45.26
2022-08-05T11:32:28.099Z,45.37
2022-08-05T11:34:58.474Z,46.15
2022-08-05T11:38:30.623Z,46.53
2022-08-05T11:41:36.858Z,46.35
2022-08-05T11:44:04.602Z,46.23
2022-08-05T11:47:09.841Z,46.74
2022-08-05T11:49:34.088Z,47.52
2022-08-05T11:52:11.271Z,46.72
2022-08-05T11:54:43.568Z,45.45
2022-08-05T11:57:25.659Z,46.03
2022-08-05T11:59:56.038Z,46.00
2022-08-05T12:02:33.106Z,46.30
2022-08-05T12:05:18.483Z,46.71
2022-08-05T12:08:09.296Z,47.19
2022-08-05T12:10:45.027Z,47.62
2022-08-05T12:13:28.345Z,47.54
2022-08-05T12:16:14.600Z,46.97
2022-08-05T12:18:52.427Z,46.66
2022-08-05T12:21:29.621Z,47.20
2022-08-05T12:24:06.870Z,47.59
2022-08-05T12:26:44.135Z,47.16
2022-08-05T12:29:17.938Z,46.94
2022-08-05T12:31:54.622Z,46.91
2022-08-05T12:34:28.570Z,47.08
2022-08-05T12:37:17.682Z,47.16
2022-08-05T12:39:53.979Z,47.43
2022-08-05T12:42:25.310Z,46.80
2022-08-05T12:45:02.249Z,47.05
2022-08-05T12:47:33.023Z,46.71
2022-08-05T12:50:17.362Z,46.60
2022-08-05T12:52:59.735Z,45.82
2022-08-05T12:55:33.030Z,45.58
2022-08-05T12:58:49.211Z,46.17
2022-08-05T13:02:01.664Z,46.12
2022-08-05T13:03:45.705Z,45.53
2022-08-05T13:06:19.913Z,45.29
2022-08-05T13:08:52.386Z,45.71
2022-08-05T13:11:59.864Z,45.55
2022-08-05T13:14:36.438Z,45.76
2022-08-05T13:17:12.525Z,45.68
2022-08-05T13:19:51.939Z,45.63
2022-08-05T13:22:28.067Z,45.81
2022-08-05T13:25:05.292Z,45.77
2022-08-05T13:27:38.233Z,46.31
2022-08-05T13:30:34.188Z,46.29
2022-08-05T13:33:02.712Z,45.74
2022-08-05T13:35:47.229Z,45.50
2022-08-05T13:38:30.936Z,45.47
2022-08-05T13:41:03.906Z,45.82
2022-08-05T13:43:33.171Z,45.20
2022-08-05T13:46:30.738Z,44.48
2022-08-05T13:49:10.575Z,44.74
2022-08-05T13:51:46.139Z,44.33
2022-08-05T13:54:21.052Z,44.63
2022-08-05T13:56:54.189Z,44.43
2022-08-05T13:59:27.396Z,44.90
2022-08-05T14:02:05.546Z,45.18
2022-08-05T14:04:55.248Z,44.28
2022-08-05T14:08:00.826Z,44.53
2022-08-05T14:10:28.425Z,44.49
2022-08-05T14:13:00.225Z,44.60
2022-08-05T14:16:07.886Z,44.67
2022-08-05T14:18:23.202Z,44.81
2022-08-05T14:20:54.868Z,44.94
2022-08-05T14:23:29.685Z,45.04
2022-08-05T14:26:06.350Z,45.67
2022-08-05T14:28:35.531Z,45.52
2022-08-05T14:31:05.068Z,45.39
2022-08-05T14:33:59.217Z,44.50
2022-08-05T14:36:29.697Z,44.69
2022-08-05T14:38:59.137Z,44.22
2022-08-05T14:41:31.612Z,44.07
2022-08-05T14:44:14.463Z,43.93
2022-08-05T14:46:49.783Z,44.05
2022-08-05T14:49:20.308Z,43.58
2022-08-05T14:51:52.186Z,43.60
2022-08-05T14:54:27.919Z,42.70
2022-08-05T14:57:00.804Z,42.88
2022-08-05T14:59:35.358Z,43.07
2022-08-05T15:02:15.744Z,42.84
2022-08-05T15:04:47.947Z,42.77
2022-08-05T15:08:10.812Z,42.14
2022-08-05T15:10:09.699Z,42.34
2022-08-05T15:13:00.158Z,42.40
2022-08-05T15:15:54.509Z,42.16
2022-08-05T15:18:19.184Z,41.81
2022-08-05T15:20:49.843Z,41.36
2022-08-05T15:23:20.143Z,41.74
2022-08-05T15:25:56.619Z,41.43
2022-08-05T15:28:28.061Z,41.58
2022-08-05T15:31:00.713Z,41.92
2022-08-05T15:34:05.540Z,41.98
2022-08-05T15:36:28.584Z,41.56
2022-08-05T15:40:58.425Z,41.20
2022-08-05T15:41:55.924Z,41.46
2022-08-05T15:44:32.033Z,41.57
2022-08-05T15:47:03.998Z,41.39
2022-08-05T15:49:53.829Z,41.46
2022-08-05T15:52:52.036Z,41.48
2022-08-05T15:55:16.417Z,41.20
2022-08-05T15:57:49.022Z,41.27
2022-08-05T16:00:26.351Z,41.63
2022-08-05T16:03:08.157Z,41.45
2022-08-05T16:05:39.051Z,41.28
2022-08-05T16:08:12.437Z,40.82
2022-08-05T16:10:48.408Z,40.73
2022-08-05T16:13:24.060Z,40.64
2022-08-05T16:16:03.955Z,40.72
2022-08-05T16:18:34.248Z,40.62
2022-08-05T16:21:04.211Z,40.53
2022-08-05T16:23:53.610Z,40.73
2022-08-05T16:26:26.592Z,41.06
2022-08-05T16:29:03.744Z,41.00
2022-08-05T16:31:57.200Z,40.96
2022-08-05T16:34:24.370Z,41.02
2022-08-05T16:36:56.011Z,40.95
2022-08-05T16:40:04.302Z,40.70
2022-08-05T16:42:28.071Z,40.87
2022-08-05T16:44:57.860Z,40.81
2022-08-05T16:47:36.409Z,40.55
2022-08-05T16:50:18.120Z,40.41
2022-08-05T16:52:47.490Z,40.21
2022-08-05T16:55:19.786Z,40.16
2022-08-05T16:58:00.079Z,40.33
2022-08-05T17:00:34.661Z,40.42
2022-08-05T17:03:15.338Z,40.23
2022-08-05T17:05:53.857Z,40.16
2022-08-05T17:08:36.423Z,40.15
2022-08-05T17:11:17.507Z,40.50
2022-08-05T17:13:47.511Z,40.31
2022-08-05T17:16:36.152Z,40.04
2022-08-05T17:19:10.734Z,40.62
2022-08-05T17:21:40.619Z,41.70
2022-08-05T17:24:18.499Z,42.04
2022-08-05T17:27:02.073Z,42.82
2022-08-05T17:29:33.731Z,44.06
2022-08-05T17:32:11.758Z,45.04
2022-08-05T17:34:48.485Z,45.61
2022-08-05T17:37:40.616Z,46.39
2022-08-05T17:40:15.160Z,47.10
2022-08-05T17:42:51.890Z,47.72
2022-08-05T17:45:29.608Z,48.04
2022-08-05T17:48:09.025Z,49.19
2022-08-05T17:50:40.440Z,49.49
2022-08-05T17:53:10.674Z,49.84
2022-08-05T17:55:40.929Z,50.21
2022-08-05T17:58:16.131Z,50.45
2022-08-05T18:00:50.740Z,51.07
2022-08-05T18:06:14.990Z,51.66
2022-08-05T18:08:52.234Z,52.13
2022-08-05T18:11:33.196Z,52.58
2022-08-05T18:14:07.539Z,53.32
2022-08-05T18:16:50.968Z,53.70
2022-08-05T18:19:23.031Z,54.58
2022-08-05T18:22:08.397Z,54.43
2022-08-05T18:24:41.155Z,54.77
2022-08-05T18:27:18.757Z,55.15
2022-08-05T18:29:54.342Z,55.39
2022-08-05T18:32:30.336Z,56.04
2022-08-05T18:35:03.019Z,56.13
2022-08-05T18:37:40.248Z,57.00
2022-08-05T18:41:03.336Z,57.46
2022-08-05T18:43:03.459Z,57.96
2022-08-05T18:45:41.356Z,58.32
2022-08-05T18:48:17.546Z,58.26
2022-08-05T18:52:06.651Z,58.70
2022-08-05T18:54:08.830Z,59.26
2022-08-05T18:56:41.381Z,59.72
2022-08-05T18:59:43.128Z,59.83
2022-08-05T19:02:28.197Z,60.24
2022-08-05T19:06:06.222Z,60.81
2022-08-05T19:07:58.156Z,60.85
2022-08-05T19:10:30.608Z,60.96
2022-08-05T19:13:03.009Z,61.05
2022-08-05T19:15:57.194Z,61.08
2022-08-05T19:18:26.622Z,61.40
2022-08-05T19:20:57.148Z,61.76
2022-08-05T19:24:07.429Z,61.91
2022-08-05T19:26:16.810Z,62.39
2022-08-05T19:28:46.213Z,62.82
2022-08-05T19:31:17.745Z,62.78
2022-08-05T19:33:56.664Z,63.11
2022-08-05T19:36:29.287Z,63.49
2022-08-05T19:39:02.022Z,63.78
2022-08-05T19:42:06.134Z,63.86
2022-08-05T19:44:29.102Z,64.31
2022-08-05T19:46:58.613Z,64.49
2022-08-05T19:49:29.654Z,64.43
2022-08-05T19:52:08.374Z,64.75
2022-08-05T19:54:50.648Z,65.19
2022-08-05T19:57:47.585Z,65.21
2022-08-05T20:00:16.374Z,65.89
2022-08-05T20:02:50.173Z,65.93
2022-08-05T20:05:24.472Z,65.79
2022-08-05T20:07:59.088Z,66.22
2022-08-05T20:10:28.745Z,66.40
2022-08-05T20:12:58.557Z,66.74
2022-08-05T20:15:52.018Z,67.10
2022-08-05T20:18:33.967Z,67.14
2022-08-05T20:21:08.997Z,67.41
2022-08-05T20:23:51.253Z,67.58
2022-08-05T20:26:24.836Z,67.73
2022-08-05T20:29:00.680Z,67.99
2022-08-05T20:31:42.817Z,68.64
2022-08-05T20:34:23.235Z,68.57
2022-08-05T20:36:56.662Z,69.14
2022-08-05T20:39:26.009Z,69.60
2022-08-05T20:42:06.736Z,69.71
2022-08-05T20:44:40.885Z,70.35
2022-08-05T20:47:10.419Z,70.19
2022-08-05T20:49:40.185Z,70.72
2022-08-05T20:52:12.327Z,70.88
2022-08-05T20:54:43.201Z,71.29
2022-08-05T20:57:44.057Z,71.28
2022-08-05T21:00:41.029Z,71.33
2022-08-05T21:03:07.902Z,72.02
2022-08-05T21:05:53.708Z,72.28
2022-08-05T21:08:26.595Z,72.49
2022-08-05T21:11:09.903Z,72.67
2022-08-05T21:13:55.852Z,73.06
2022-08-05T21:16:29.117Z,72.88
2022-08-05T21:19:00.884Z,73.24
2022-08-05T21:21:44.006Z,73.59
2022-08-05T21:24:20.672Z,73.38
2022-08-05T21:26:58.065Z,73.87
2022-08-05T21:29:32.090Z,73.99
2022-08-05T21:32:03.511Z,73.90
2022-08-05T21:34:32.943Z,74.03
2022-08-05T21:37:08.305Z,74.41
2022-08-05T21:39:40.271Z,74.52
2022-08-05T21:42:30.964Z,74.59
2022-08-05T21:45:04.988Z,74.75
2022-08-05T21:47:57.134Z,74.84
2022-08-05T21:50:23.233Z,75.02
2022-08-05T21:52:52.361Z,75.42
2022-08-05T21:56:01.375Z,75.17
2022-08-05T21:58:12.038Z,75.28
2022-08-05T22:00:41.272Z,75.90
2022-08-05T22:03:20.538Z,75.90
2022-08-05T22:06:08.891Z,75.90
2022-08-05T22:08:37.655Z,75.87
2022-08-05T22:11:15.596Z,76.02
2022-08-05T22:14:32.329Z,76.06
2022-08-05T22:16:42.053Z,76.15
2022-08-05T22:20:02.180Z,76.32
2022-08-05T22:22:10.757Z,76.33
2022-08-05T22:24:58.230Z,76.71
2022-08-05T22:28:08.707Z,76.72
2022-08-05T22:30:36.033Z,76.89
2022-08-05T22:33:15.304Z,76.86
2022-08-05T22:35:47.934Z,77.07
2022-08-05T22:38:19.598Z,76.91
2022-08-05T22:40:54.937Z,77.09
2022-08-05T22:43:36.955Z,77.21
2022-08-05T22:46:13.536Z,77.13
2022-08-05T22:48:52.382Z,77.19
2022-08-05T22:51:23.278Z,77.32
2022-08-05T22:54:10.014Z,77.28
2022-08-05T22:56:40.040Z,77.71
2022-08-05T22:59:48.559Z,77.64
2022-08-05T23:02:05.944Z,77.64
2022-08-05T23:04:39.586Z,77.72
2022-08-05T23:07:08.757Z,77.96
2022-08-05T23:09:57.374Z,77.98
2022-08-05T23:12:28.550Z,77.89
2022-08-05T23:15:03.363Z,77.94
2022-08-05T23:17:59.886Z,78.21
2022-08-05T23:20:24.558Z,78.16
2022-08-05T23:22:55.950Z,78.19
2022-08-05T23:25:51.409Z,78.11
2022-08-05T23:28:15.967Z,78.06
2022-08-05T23:30:53.735Z,78.12
2022-08-05T23:33:26.156Z,78.27
2022-08-05T23:36:14.029Z,78.19
2022-08-05T23:38:43.784Z,78.55
2022-08-05T23:41:13.075Z,78.35
2022-08-05T23:44:06.093Z,78.43
2022-08-05T23:46:32.598Z,78.46
2022-08-05T23:49:15.628Z,78.54
2022-08-05T23:52:02.730Z,78.64
2022-08-05T23:54:38.113Z,78.61
2022-08-05T23:57:09.002Z,78.73
